createdAt,value
2023-05-22T00:02:17.014Z,19.10
2023-05-22T00:04:46.733Z,19.10
2023-05-22T00:07:16.712Z,19.10
2023-05-22T00:09:44.693Z,19.00
2023-05-22T00:12:12.767Z,19.00
2023-05-22T00:14:40.875Z,18.90
2023-05-22T00:17:10.390Z,18.90
2023-05-22T00:19:38.671Z,18.90
2023-05-22T00:22:08.984Z,18.90
2023-05-22T00:24:39.167Z,18.80
2023-05-22T00:27:07.270Z,18.80
2023-05-22T00:29:35.777Z,18.70
2023-05-22T00:32:03.823Z,18.70
2023-05-22T00:34:33.343Z,18.70
2023-05-22T00:37:01.625Z,18.60
2023-05-22T00:39:31.535Z,18.60
2023-05-22T00:41:59.596Z,18.60
2023-05-22T00:44:29.949Z,18.60
2023-05-22T00:46:58.343Z,18.60
2023-05-22T00:49:26.660Z,18.50
2023-05-22T00:51:56.408Z,18.50
2023-05-22T00:54:24.942Z,18.50
2023-05-22T00:56:55.217Z,18.40
2023-05-22T00:59:23.504Z,18.40
2023-05-22T01:01:52.075Z,18.40
2023-05-22T01:04:20.946Z,18.40
2023-05-22T01:06:49.492Z,18.40
2023-05-22T01:09:20.185Z,18.30
2023-05-22T01:12:12.855Z,18.30
2023-05-22T01:14:48.161Z,18.30
2023-05-22T01:17:24.686Z,18.20
2023-05-22T01:20:06.825Z,18.20
2023-05-22T01:23:09.189Z,18.10
2023-05-22T01:26:20.630Z,18.10
2023-05-22T01:29:15.792Z,18.10
2023-05-22T01:31:49.629Z,18.00
2023-05-22T01:34:20.028Z,18.00
2023-05-22T01:36:51.895Z,18.00
2023-05-22T01:39:21.181Z,17.90
2023-05-22T01:41:49.560Z,17.90
2023-05-22T01:44:17.791Z,17.90
2023-05-22T01:46:47.260Z,17.90
2023-05-22T01:49:15.365Z,17.80
2023-05-22T01:51:52.967Z,17.80
2023-05-22T01:54:28.882Z,17.80
2023-05-22T01:57:02.860Z,17.70
2023-05-22T01:59:34.333Z,17.70
2023-05-22T02:02:07.675Z,17.70
2023-05-22T02:04:43.437Z,17.70
2023-05-22T02:07:13.499Z,17.70
2023-05-22T02:09:44.290Z,17.70
2023-05-22T02:12:13.588Z,17.60
2023-05-22T02:14:43.475Z,17.60
2023-05-22T02:17:12.807Z,17.50
2023-05-22T02:19:40.981Z,17.60
2023-05-22T02:22:09.901Z,17.50
2023-05-22T02:24:38.281Z,17.60
2023-05-22T02:27:12.909Z,17.50
2023-05-22T02:29:41.292Z,17.50
2023-05-22T02:32:09.667Z,17.50
2023-05-22T02:34:39.151Z,17.50
2023-05-22T02:37:07.137Z,17.50
2023-05-22T02:39:35.243Z,17.50
2023-05-22T02:42:03.668Z,17.50
2023-05-22T02:44:31.772Z,17.50
2023-05-22T02:46:59.932Z,17.50
2023-05-22T02:49:28.583Z,17.40
2023-05-22T02:52:00.203Z,17.40
2023-05-22T02:54:28.254Z,17.40
2023-05-22T02:56:56.868Z,17.40
2023-05-22T02:59:25.062Z,17.40
2023-05-22T03:01:54.393Z,17.40
2023-05-22T03:04:23.004Z,17.40
2023-05-22T03:06:51.362Z,17.40
2023-05-22T03:09:21.522Z,17.40
2023-05-22T03:11:49.628Z,17.40
2023-05-22T03:14:17.681Z,17.50
2023-05-22T03:16:45.749Z,17.40
2023-05-22T03:19:16.377Z,17.50
2023-05-22T03:21:45.036Z,17.50
2023-05-22T03:24:14.727Z,17.40
2023-05-22T03:26:44.160Z,17.50
2023-05-22T03:29:12.302Z,17.50
2023-05-22T03:31:40.320Z,17.50
2023-05-22T03:34:08.489Z,17.50
2023-05-22T03:36:38.012Z,17.50
2023-05-22T03:39:06.420Z,17.50
2023-05-22T03:41:34.584Z,17.50
2023-05-22T03:44:04.470Z,17.50
2023-05-22T03:46:32.561Z,17.60
2023-05-22T03:49:02.664Z,17.60
2023-05-22T03:51:31.506Z,17.60
2023-05-22T03:53:59.518Z,17.60
2023-05-22T03:56:27.588Z,17.60
2023-05-22T03:58:56.149Z,17.60
2023-05-22T04:01:27.574Z,17.50
2023-05-22T04:03:55.631Z,17.50
2023-05-22T04:06:23.733Z,17.50
2023-05-22T04:08:52.100Z,17.50
2023-05-22T04:11:22.821Z,17.50
2023-05-22T04:13:52.116Z,17.50
2023-05-22T04:16:20.989Z,17.50
2023-05-22T04:18:50.561Z,17.50
2023-05-22T04:21:19.160Z,17.50
2023-05-22T04:23:47.621Z,17.50
2023-05-22T04:26:15.899Z,17.50
2023-05-22T04:28:46.368Z,17.40
2023-05-22T04:31:14.762Z,17.40
2023-05-22T04:33:42.829Z,17.40
2023-05-22T04:36:13.049Z,17.40
2023-05-22T04:38:41.430Z,17.50
2023-05-22T04:41:10.438Z,17.50
2023-05-22T04:43:39.879Z,17.50
2023-05-22T04:46:08.447Z,17.50
2023-05-22T04:48:37.092Z,17.50
2023-05-22T04:51:12.975Z,17.50
2023-05-22T04:53:41.019Z,17.50
2023-05-22T04:56:09.285Z,17.50
2023-05-22T04:58:38.271Z,17.50
2023-05-22T05:01:06.720Z,17.50
2023-05-22T05:03:35.498Z,17.50
2023-05-22T05:06:03.577Z,17.50
2023-05-22T05:08:33.222Z,17.50
2023-05-22T05:11:01.255Z,17.60
2023-05-22T05:13:29.284Z,17.60
2023-05-22T05:15:58.622Z,17.70
2023-05-22T05:18:28.122Z,17.70
2023-05-22T05:20:56.261Z,17.80
2023-05-22T05:23:24.283Z,17.80
2023-05-22T05:25:53.765Z,17.90
2023-05-22T05:28:21.805Z,17.90
2023-05-22T05:30:49.847Z,18.00
2023-05-22T05:33:21.725Z,18.10
2023-05-22T05:35:52.894Z,18.10
2023-05-22T05:38:21.133Z,18.20
2023-05-22T05:40:49.646Z,18.20
2023-05-22T05:43:20.155Z,18.30
2023-05-22T05:45:48.411Z,18.30
2023-05-22T05:48:16.635Z,18.40
2023-05-22T05:50:44.957Z,18.40
2023-05-22T05:53:13.005Z,18.40
2023-05-22T05:55:41.641Z,18.40
2023-05-22T05:58:10.268Z,18.40
2023-05-22T06:00:42.524Z,18.50
2023-05-22T06:03:11.085Z,18.50
2023-05-22T06:05:39.771Z,18.50
2023-05-22T06:08:08.652Z,18.50
2023-05-22T06:10:37.396Z,18.50
2023-05-22T06:13:05.643Z,18.60
2023-05-22T06:15:33.784Z,18.60
2023-05-22T06:18:03.861Z,18.60
2023-05-22T06:20:31.897Z,18.60
2023-05-22T06:23:00.322Z,18.50
2023-05-22T06:25:30.091Z,18.50
2023-05-22T06:27:58.118Z,18.50
2023-05-22T06:30:39.055Z,18.50
2023-05-22T06:33:14.611Z,18.40
2023-05-22T06:35:43.103Z,18.40
2023-05-22T06:38:11.097Z,18.30
2023-05-22T06:40:39.682Z,18.40
2023-05-22T06:43:07.821Z,18.30
2023-05-22T06:45:37.427Z,18.20
2023-05-22T06:48:06.303Z,18.20
2023-05-22T06:50:36.062Z,18.20
2023-05-22T06:53:04.105Z,18.20
2023-05-22T06:55:32.321Z,18.30
2023-05-22T06:58:01.004Z,18.40
2023-05-22T07:00:29.090Z,18.40
2023-05-22T07:02:57.501Z,18.40
2023-05-22T07:05:26.247Z,18.40
2023-05-22T07:07:55.674Z,18.40
2023-05-22T07:10:25.297Z,18.50
2023-05-22T07:12:53.277Z,18.50
2023-05-22T07:15:21.303Z,18.50
2023-05-22T07:17:49.645Z,18.50
2023-05-22T07:20:18.251Z,18.50
2023-05-22T07:22:46.252Z,18.50
2023-05-22T07:25:15.974Z,18.60
2023-05-22T07:27:44.056Z,18.60
2023-05-22T07:30:13.048Z,18.60
2023-05-22T07:32:41.197Z,18.50
2023-05-22T07:35:11.689Z,18.50
2023-05-22T07:37:39.710Z,18.50
2023-05-22T07:40:09.763Z,18.40
2023-05-22T07:42:39.568Z,18.30
2023-05-22T07:45:08.555Z,18.30
2023-05-22T07:47:36.767Z,18.20
2023-05-22T07:50:05.751Z,18.10
2023-05-22T07:52:33.825Z,18.10
2023-05-22T07:55:02.146Z,18.00
2023-05-22T07:57:30.654Z,17.90
2023-05-22T08:00:00.534Z,17.90
2023-05-22T08:02:28.627Z,17.90
2023-05-22T08:04:56.901Z,17.90
2023-05-22T08:07:25.091Z,17.80
2023-05-22T08:09:53.279Z,17.90
2023-05-22T08:12:21.418Z,17.90
2023-05-22T08:14:49.475Z,17.90
2023-05-22T08:17:19.429Z,18.00
2023-05-22T08:19:47.808Z,18.00
2023-05-22T08:22:15.982Z,18.00
2023-05-22T08:24:44.387Z,18.00
2023-05-22T08:27:12.363Z,18.00
2023-05-22T08:29:40.668Z,18.00
2023-05-22T08:32:09.319Z,18.00
2023-05-22T08:34:40.125Z,18.00
2023-05-22T08:37:09.695Z,18.00
2023-05-22T08:39:37.825Z,18.00
2023-05-22T08:42:07.274Z,18.00
2023-05-22T08:44:35.570Z,18.00
2023-05-22T08:47:05.476Z,18.10
2023-05-22T08:49:33.634Z,18.10
2023-05-22T08:52:07.221Z,18.10
2023-05-22T08:54:40.850Z,18.20
2023-05-22T08:57:09.518Z,18.20
2023-05-22T08:59:39.929Z,18.20
2023-05-22T09:02:09.900Z,18.20
2023-05-22T09:04:38.251Z,18.20
2023-05-22T09:07:09.086Z,18.10
2023-05-22T09:09:38.171Z,18.10
2023-05-22T09:12:09.090Z,18.20
2023-05-22T09:14:40.906Z,18.20
2023-05-22T09:17:11.362Z,18.20
2023-05-22T09:19:44.135Z,18.20
2023-05-22T09:22:14.050Z,18.20
2023-05-22T09:24:43.168Z,18.30
2023-05-22T09:27:12.207Z,18.30
2023-05-22T09:29:50.525Z,18.30
2023-05-22T09:32:18.857Z,18.40
2023-05-22T09:34:47.900Z,18.40
2023-05-22T09:37:18.139Z,18.50
2023-05-22T09:39:47.441Z,18.50
2023-05-22T09:42:17.985Z,18.60
2023-05-22T09:44:50.182Z,18.70
2023-05-22T09:47:18.318Z,18.70
2023-05-22T09:49:47.108Z,18.80
2023-05-22T09:52:15.837Z,18.90
2023-05-22T09:54:53.838Z,18.90
2023-05-22T09:57:23.033Z,19.00
2023-05-22T09:59:54.556Z,19.00
2023-05-22T10:02:24.056Z,19.00
2023-05-22T10:04:53.093Z,19.10
2023-05-22T10:07:24.202Z,19.10
2023-05-22T10:09:58.023Z,19.20
2023-05-22T10:12:29.807Z,19.20
2023-05-22T10:14:58.559Z,19.30
2023-05-22T10:17:27.233Z,19.20
2023-05-22T10:19:58.969Z,19.20
2023-05-22T10:22:30.430Z,19.20
2023-05-22T10:25:00.955Z,19.10
2023-05-22T10:27:29.150Z,19.20
2023-05-22T10:30:04.094Z,19.20
2023-05-22T10:32:40.165Z,19.20
2023-05-22T10:35:18.484Z,19.10
2023-05-22T10:37:51.191Z,19.10
2023-05-22T10:40:30.360Z,19.10
2023-05-22T10:43:00.336Z,19.10
2023-05-22T10:45:29.694Z,19.20
2023-05-22T10:48:08.450Z,19.30
2023-05-22T10:50:37.529Z,19.30
2023-05-22T10:53:24.604Z,19.30
2023-05-22T10:55:55.668Z,19.30
2023-05-22T10:58:28.484Z,19.30
2023-05-22T11:01:16.710Z,19.30
2023-05-22T11:03:56.022Z,19.30
2023-05-22T11:06:35.593Z,19.30
2023-05-22T11:09:27.950Z,19.30
2023-05-22T11:15:00.247Z,19.30
2023-05-22T11:17:29.697Z,19.30
2023-05-22T11:20:05.340Z,19.30
2023-05-22T11:22:35.617Z,19.40
2023-05-22T11:25:09.374Z,19.40
2023-05-22T11:27:39.114Z,19.40
2023-05-22T11:30:10.721Z,19.50
2023-05-22T11:32:39.622Z,19.50
2023-05-22T11:35:09.270Z,19.50
2023-05-22T11:37:41.026Z,19.40
2023-05-22T11:40:10.814Z,19.40
2023-05-22T11:42:39.221Z,19.40
2023-05-22T11:45:10.078Z,19.30
2023-05-22T11:47:38.701Z,19.30
2023-05-22T11:50:09.897Z,19.40
2023-05-22T11:52:39.587Z,19.40
2023-05-22T11:55:09.136Z,19.40
2023-05-22T11:57:38.253Z,19.50
2023-05-22T12:00:10.646Z,19.50
2023-05-22T12:02:39.061Z,19.50
2023-05-22T12:05:10.204Z,19.60
2023-05-22T12:07:38.664Z,19.70
2023-05-22T12:10:08.141Z,19.70
2023-05-22T12:12:36.310Z,19.80
2023-05-22T12:15:08.755Z,19.90
2023-05-22T12:17:38.769Z,19.90
2023-05-22T12:20:08.706Z,20.00
2023-05-22T12:22:42.939Z,20.10
2023-05-22T12:25:15.385Z,20.20
2023-05-22T12:27:44.805Z,20.30
2023-05-22T12:30:16.693Z,20.40
2023-05-22T12:32:49.897Z,20.50
2023-05-22T12:35:19.808Z,20.60
2023-05-22T12:37:51.325Z,20.80
2023-05-22T12:40:19.852Z,20.90
2023-05-22T12:42:49.406Z,21.00
2023-05-22T12:45:19.110Z,21.00
2023-05-22T12:47:47.343Z,21.00
2023-05-22T12:50:15.596Z,21.10
2023-05-22T12:52:44.112Z,21.10
2023-05-22T12:55:12.688Z,21.20
2023-05-22T12:57:40.777Z,21.20
2023-05-22T13:00:10.211Z,21.30
2023-05-22T13:02:39.751Z,21.30
2023-05-22T13:05:08.506Z,21.40
2023-05-22T13:07:36.964Z,21.50
2023-05-22T13:10:06.083Z,21.60
2023-05-22T13:12:34.280Z,21.80
2023-05-22T13:15:02.714Z,22.00
2023-05-22T13:17:32.947Z,22.10
2023-05-22T13:20:02.665Z,22.40
2023-05-22T13:22:30.753Z,22.50
2023-05-22T13:24:58.924Z,22.50
2023-05-22T13:27:27.471Z,22.50
2023-05-22T13:29:56.032Z,22.60
2023-05-22T13:32:24.166Z,22.70
2023-05-22T13:34:52.352Z,22.70
2023-05-22T13:37:22.196Z,22.80
2023-05-22T13:39:50.337Z,22.90
2023-05-22T13:42:18.484Z,23.00
2023-05-22T13:44:46.781Z,22.90
2023-05-22T13:47:14.966Z,22.90
2023-05-22T13:49:43.122Z,23.00
2023-05-22T13:52:11.503Z,23.00
2023-05-22T13:54:40.955Z,23.00
2023-05-22T13:57:09.024Z,22.90
2023-05-22T13:59:37.115Z,23.00
2023-05-22T14:02:05.714Z,22.90
2023-05-22T14:04:34.118Z,22.90
2023-05-22T14:07:02.390Z,22.80
2023-05-22T14:09:31.391Z,22.80
2023-05-22T14:12:00.888Z,22.80
2023-05-22T14:14:28.985Z,22.60
2023-05-22T14:16:57.056Z,22.60
2023-05-22T14:19:25.669Z,22.50
2023-05-22T14:21:53.990Z,22.60
2023-05-22T14:24:22.276Z,22.70
2023-05-22T14:26:51.169Z,22.90
2023-05-22T14:29:21.046Z,23.10
2023-05-22T14:31:51.959Z,23.00
2023-05-22T14:34:20.346Z,23.10
2023-05-22T14:36:48.878Z,23.30
2023-05-22T14:39:16.952Z,23.40
2023-05-22T14:41:44.975Z,23.50
2023-05-22T14:44:13.294Z,23.50
2023-05-22T14:46:42.830Z,23.50
2023-05-22T14:49:10.998Z,23.10
2023-05-22T14:51:39.209Z,23.20
2023-05-22T14:54:08.012Z,23.20
2023-05-22T14:56:36.016Z,23.30
2023-05-22T14:59:04.067Z,23.30
2023-05-22T15:01:32.681Z,23.30
2023-05-22T15:04:02.624Z,23.50
2023-05-22T15:06:31.060Z,23.50
2023-05-22T15:08:59.145Z,23.30
2023-05-22T15:11:27.634Z,23.20
2023-05-22T15:13:56.202Z,23.20
2023-05-22T15:16:26.012Z,23.10
2023-05-22T15:18:54.972Z,23.10
2023-05-22T15:21:25.763Z,23.10
2023-05-22T15:23:53.793Z,22.90
2023-05-22T15:26:23.040Z,22.90
2023-05-22T15:28:51.278Z,22.80
2023-05-22T15:31:19.876Z,22.80
2023-05-22T15:33:48.025Z,22.90
2023-05-22T15:36:16.126Z,23.00
2023-05-22T15:38:45.559Z,22.80
2023-05-22T15:41:14.265Z,22.90
2023-05-22T15:43:42.720Z,23.00
2023-05-22T15:46:12.365Z,23.00
2023-05-22T15:48:40.506Z,23.00
2023-05-22T15:51:09.967Z,22.90
2023-05-22T15:53:38.087Z,22.90
2023-05-22T15:56:08.447Z,22.80
2023-05-22T15:58:36.654Z,22.80
2023-05-22T16:01:04.862Z,22.80
2023-05-22T16:03:33.170Z,22.80
2023-05-22T16:06:01.413Z,22.60
2023-05-22T16:08:29.425Z,22.50
2023-05-22T16:11:00.602Z,22.40
2023-05-22T16:13:30.432Z,22.40
2023-05-22T16:15:58.597Z,22.20
2023-05-22T16:18:26.778Z,22.20
2023-05-22T16:20:57.211Z,22.20
2023-05-22T16:23:25.259Z,22.10
2023-05-22T16:25:53.268Z,22.00
2023-05-22T16:28:21.797Z,21.90
2023-05-22T16:30:51.343Z,21.90
2023-05-22T16:33:19.859Z,22.00
2023-05-22T16:35:48.083Z,22.10
2023-05-22T16:38:16.216Z,22.20
2023-05-22T16:40:44.369Z,22.20
2023-05-22T16:43:13.840Z,22.10
2023-05-22T16:46:01.749Z,22.00
2023-05-22T16:48:34.318Z,21.90
2023-05-22T16:51:26.554Z,21.70
2023-05-22T16:54:00.660Z,21.60
2023-05-22T16:56:28.814Z,21.50
2023-05-22T16:58:56.871Z,21.40
2023-05-22T17:01:27.404Z,21.30
2023-05-22T17:03:56.135Z,21.30
2023-05-22T17:06:24.393Z,21.40
2023-05-22T17:08:52.816Z,21.40
2023-05-22T17:11:21.101Z,21.50
2023-05-22T17:13:49.299Z,21.50
2023-05-22T17:16:17.726Z,21.30
2023-05-22T17:18:47.514Z,21.20
2023-05-22T17:21:17.433Z,21.10
2023-05-22T17:23:45.756Z,21.10
2023-05-22T17:26:14.349Z,21.10
2023-05-22T17:28:42.695Z,21.10
2023-05-22T17:31:10.888Z,21.10
2023-05-22T17:33:39.090Z,21.00
2023-05-22T17:36:08.779Z,20.90
2023-05-22T17:38:37.068Z,20.80
2023-05-22T17:41:05.190Z,20.90
2023-05-22T17:43:35.346Z,20.90
2023-05-22T17:46:03.898Z,20.90
2023-05-22T17:48:32.113Z,20.80
2023-05-22T17:51:00.573Z,20.80
2023-05-22T17:53:34.004Z,20.70
2023-05-22T17:56:02.826Z,20.70
2023-05-22T17:58:30.913Z,20.60
2023-05-22T18:00:59.175Z,20.50
2023-05-22T18:03:27.530Z,20.50
2023-05-22T18:05:55.983Z,20.50
2023-05-22T18:08:24.014Z,20.50
2023-05-22T18:10:55.758Z,20.60
2023-05-22T18:13:23.863Z,20.50
2023-05-22T18:15:52.296Z,20.40
2023-05-22T18:18:22.392Z,20.40
2023-05-22T18:20:52.759Z,20.30
2023-05-22T18:23:21.162Z,20.30
2023-05-22T18:25:49.438Z,20.30
2023-05-22T18:28:19.950Z,20.40
2023-05-22T18:30:49.491Z,20.20
2023-05-22T18:33:17.854Z,20.10
2023-05-22T18:35:45.865Z,20.10
2023-05-22T18:38:14.150Z,20.10
2023-05-22T18:40:42.454Z,20.00
2023-05-22T18:43:10.768Z,20.10
2023-05-22T18:45:40.531Z,20.10
2023-05-22T18:48:08.592Z,20.20
2023-05-22T18:50:36.979Z,20.20
2023-05-22T18:53:07.151Z,20.30
2023-05-22T18:55:35.407Z,20.30
2023-05-22T18:58:03.820Z,20.20
2023-05-22T19:00:32.000Z,20.10
2023-05-22T19:03:02.259Z,20.10
2023-05-22T19:05:30.657Z,20.10
2023-05-22T19:07:58.865Z,20.10
2023-05-22T19:10:26.971Z,20.10
2023-05-22T19:12:55.080Z,20.10
2023-05-22T19:15:23.186Z,20.10
2023-05-22T19:17:51.552Z,20.00
2023-05-22T19:20:21.165Z,20.00
2023-05-22T19:22:50.859Z,20.00
2023-05-22T19:25:19.000Z,20.00
2023-05-22T19:27:47.536Z,19.90
2023-05-22T19:30:16.593Z,19.90
2023-05-22T19:32:44.649Z,19.80
2023-05-22T19:35:12.923Z,19.80
2023-05-22T19:37:42.497Z,19.80
2023-05-22T19:40:11.375Z,19.70
2023-05-22T19:42:39.933Z,19.70
2023-05-22T19:45:09.479Z,19.60
2023-05-22T19:47:37.921Z,19.60
2023-05-22T19:50:08.286Z,19.50
2023-05-22T19:52:36.411Z,19.40
2023-05-22T19:55:07.031Z,19.40
2023-05-22T19:57:35.127Z,19.40
2023-05-22T20:00:07.520Z,19.30
2023-05-22T20:02:35.673Z,19.20
2023-05-22T20:05:04.371Z,19.10
2023-05-22T20:07:34.240Z,18.90
2023-05-22T20:10:02.249Z,18.80
2023-05-22T20:12:31.974Z,18.70
2023-05-22T20:15:00.196Z,18.70
2023-05-22T20:17:28.505Z,18.60
2023-05-22T20:19:57.552Z,18.50
2023-05-22T20:22:25.766Z,18.50
2023-05-22T20:24:54.027Z,18.50
2023-05-22T20:27:22.117Z,18.50
2023-05-22T20:29:51.646Z,18.50
2023-05-22T20:32:19.687Z,18.40
2023-05-22T20:34:47.780Z,18.30
2023-05-22T20:37:15.845Z,18.20
2023-05-22T20:39:44.260Z,18.20
2023-05-22T20:42:16.972Z,18.20
2023-05-22T20:44:46.263Z,18.10
2023-05-22T20:47:15.613Z,18.00
2023-05-22T20:49:43.667Z,17.90
2023-05-22T20:52:13.574Z,17.90
2023-05-22T20:54:41.980Z,17.80
2023-05-22T20:57:09.978Z,17.70
2023-05-22T20:59:38.410Z,17.70
2023-05-22T21:02:07.311Z,17.60
2023-05-22T21:04:36.775Z,17.50
2023-05-22T21:07:04.978Z,17.60
2023-05-22T21:09:33.157Z,17.60
2023-05-22T21:12:01.416Z,17.50
2023-05-22T21:14:29.603Z,17.50
2023-05-22T21:16:57.721Z,17.50
2023-05-22T21:19:25.816Z,17.40
2023-05-22T21:21:55.242Z,17.50
2023-05-22T21:24:23.276Z,17.50
2023-05-22T21:26:51.467Z,17.50
2023-05-22T21:29:19.475Z,17.50
2023-05-22T21:31:47.512Z,17.60
2023-05-22T21:34:15.597Z,17.50
2023-05-22T21:36:43.711Z,17.50
2023-05-22T21:39:13.306Z,17.40
2023-05-22T21:41:41.375Z,17.40
2023-05-22T21:44:10.070Z,17.20
2023-05-22T21:46:38.228Z,17.20
2023-05-22T21:49:07.433Z,17.10
2023-05-22T21:51:35.636Z,16.90
2023-05-22T21:54:03.644Z,16.90
2023-05-22T21:56:33.012Z,16.80
2023-05-22T21:59:01.147Z,16.70
2023-05-22T22:01:29.266Z,16.70
2023-05-22T22:03:57.502Z,16.60
2023-05-22T22:06:25.699Z,16.60
2023-05-22T22:08:54.049Z,16.50
2023-05-22T22:11:22.563Z,16.40
2023-05-22T22:13:52.335Z,16.40
2023-05-22T22:16:22.084Z,16.40
2023-05-22T22:18:51.154Z,16.30
2023-05-22T22:21:19.286Z,16.30
2023-05-22T22:23:47.269Z,16.20
2023-05-22T22:26:15.324Z,16.10
2023-05-22T22:28:43.332Z,16.10
2023-05-22T22:31:12.679Z,15.90
2023-05-22T22:33:40.635Z,15.90
2023-05-22T22:36:09.085Z,15.90
2023-05-22T22:38:38.431Z,15.90
2023-05-22T22:41:08.738Z,15.90
2023-05-22T22:43:36.930Z,15.90
2023-05-22T22:46:04.977Z,15.90
2023-05-22T22:48:34.457Z,15.80
2023-05-22T22:51:02.593Z,15.80
2023-05-22T22:53:31.203Z,15.80
2023-05-22T22:55:59.368Z,15.80
2023-05-22T22:58:27.448Z,15.70
2023-05-22T23:00:55.573Z,15.70
2023-05-22T23:03:23.769Z,15.70
2023-05-22T23:05:53.213Z,15.60
2023-05-22T23:08:21.198Z,15.60
2023-05-22T23:10:49.199Z,15.60
2023-05-22T23:13:17.616Z,15.60
2023-05-22T23:15:45.786Z,15.60
2023-05-22T23:18:14.214Z,15.60
2023-05-22T23:20:42.271Z,15.60
2023-05-22T23:23:11.682Z,15.50
2023-05-22T23:25:40.102Z,15.50
2023-05-22T23:28:08.464Z,15.50
2023-05-22T23:30:36.436Z,15.40
2023-05-22T23:33:06.131Z,15.40
2023-05-22T23:35:34.135Z,15.40
2023-05-22T23:38:02.154Z,15.40
2023-05-22T23:40:31.895Z,15.50
2023-05-22T23:42:59.932Z,15.40
2023-05-22T23:45:28.057Z,15.40
2023-05-22T23:47:56.313Z,15.30
2023-05-22T23:50:24.907Z,15.40
2023-05-22T23:52:53.212Z,15.40
2023-05-22T23:55:21.584Z,15.40
2023-05-22T23:57:51.040Z,15.40
